sensor_id;sensor_type;location;lat;lon;timestamp;pressure;altitude;pressure_sealevel;temperature;humidity
49843;BME280;55559;48.898;9.184;2023-03-22T00:02:12;98263.75;;;9.30;100.00
49843;BME280;55559;48.898;9.184;2023-03-22T00:04:41;98266.97;;;9.24;100.00
49843;BME280;55559;48.898;9.184;2023-03-22T00:07:08;98262.56;;;9.13;100.00
49843;BME280;55559;48.898;9.184;2023-03-22T00:09:36;98268.53;;;9.06;100.00
49843;BME280;55559;48.898;9.184;2023-03-22T00:12:04;98271.19;;;9.06;100.00
49843;BME280;55559;48.898;9.184;2023-03-22T00:14:31;98261.81;;;9.02;100.00
49843;BME280;55559;48.898;9.184;2023-03-22T00:16:59;98262.06;;;8.99;100.00
49843;BME280;55559;48.898;9.184;2023-03-22T00:19:28;98269.06;;;9.00;100.00
49843;BME280;55559;48.898;9.184;2023-03-22T00:21:58;98261.81;;;9.02;100.00
49843;BME280;55559;48.898;9.184;2023-03-22T00:24:26;98251.91;;;9.04;100.00
49843;BME280;55559;48.898;9.184;2023-03-22T00:26:53;98256.94;;;9.07;100.00
49843;BME280;55559;48.898;9.184;2023-03-22T00:29:21;98248.16;;;9.06;100.00
49843;BME280;55559;48.898;9.184;2023-03-22T00:31:49;98247.16;;;8.98;100.00
49843;BME280;55559;48.898;9.184;2023-03-22T00:34:16;98260.78;;;8.93;100.00
49843;BME280;55559;48.898;9.184;2023-03-22T00:36:45;98259.50;;;8.87;100.00
49843;BME280;55559;48.898;9.184;2023-03-22T00:39:14;98257.38;;;8.81;100.00
49843;BME280;55559;48.898;9.184;2023-03-22T00:41:42;98257.88;;;8.75;100.00
49843;BME280;55559;48.898;9.184;2023-03-22T00:44:10;98249.94;;;8.75;100.00
49843;BME280;55559;48.898;9.184;2023-03-22T00:46:38;98253.00;;;8.70;100.00
49843;BME280;55559;48.898;9.184;2023-03-22T00:49:05;98242.78;;;8.66;100.00
49843;BME280;55559;48.898;9.184;2023-03-22T00:51:33;98242.72;;;8.56;100.00
49843;BME280;55559;48.898;9.184;2023-03-22T00:54:02;98244.78;;;8.52;100.00
49843;BME280;55559;48.898;9.184;2023-03-22T00:56:29;98234.69;;;8.46;100.00
49843;BME280;55559;48.898;9.184;2023-03-22T00:59:10;98230.50;;;8.44;100.00
49843;BME280;55559;48.898;9.184;2023-03-22T01:01:39;98237.59;;;8.43;100.00
49843;BME280;55559;48.898;9.184;2023-03-22T01:04:06;98225.41;;;8.41;100.00
49843;BME280;55559;48.898;9.184;2023-03-22T01:06:34;98223.38;;;8.44;100.00
49843;BME280;55559;48.898;9.184;2023-03-22T01:09:03;98222.28;;;8.47;100.00
49843;BME280;55559;48.898;9.184;2023-03-22T01:11:31;98220.94;;;8.41;100.00
49843;BME280;55559;48.898;9.184;2023-03-22T01:13:58;98222.53;;;8.44;100.00
49843;BME280;55559;48.898;9.184;2023-03-22T01:16:26;98217.47;;;8.41;100.00
49843;BME280;55559;48.898;9.184;2023-03-22T01:18:54;98206.28;;;8.37;100.00
49843;BME280;55559;48.898;9.184;2023-03-22T01:21:22;98215.91;;;8.38;100.00
49843;BME280;55559;48.898;9.184;2023-03-22T01:23:49;98216.63;;;8.40;100.00
49843;BME280;55559;48.898;9.184;2023-03-22T01:26:18;98209.41;;;8.42;100.00
49843;BME280;55559;48.898;9.184;2023-03-22T01:28:46;98199.88;;;8.39;100.00
49843;BME280;55559;48.898;9.184;2023-03-22T01:31:13;98200.69;;;8.51;100.00
49843;BME280;55559;48.898;9.184;2023-03-22T01:33:41;98196.38;;;8.50;100.00
49843;BME280;55559;48.898;9.184;2023-03-22T01:36:09;98189.97;;;8.53;100.00
49843;BME280;55559;48.898;9.184;2023-03-22T01:38:37;98195.84;;;8.56;100.00
49843;BME280;55559;48.898;9.184;2023-03-22T01:41:05;98183.31;;;8.59;100.00
49843;BME280;55559;48.898;9.184;2023-03-22T01:43:37;98187.19;;;8.54;100.00
49843;BME280;55559;48.898;9.184;2023-03-22T01:46:05;98187.88;;;8.56;100.00
49843;BME280;55559;48.898;9.184;2023-03-22T01:48:35;98184.16;;;8.59;100.00
49843;BME280;55559;48.898;9.184;2023-03-22T01:51:06;98180.91;;;8.55;100.00
49843;BME280;55559;48.898;9.184;2023-03-22T01:53:49;98195.00;;;8.56;100.00
49843;BME280;55559;48.898;9.184;2023-03-22T01:56:18;98186.09;;;8.57;100.00
49843;BME280;55559;48.898;9.184;2023-03-22T01:58:51;98188.44;;;8.50;100.00
49843;BME280;55559;48.898;9.184;2023-03-22T02:01:25;98184.28;;;8.36;100.00
49843;BME280;55559;48.898;9.184;2023-03-22T02:03:57;98182.88;;;8.53;100.00
49843;BME280;55559;48.898;9.184;2023-03-22T02:06:27;98188.75;;;8.57;100.00
49843;BME280;55559;48.898;9.184;2023-03-22T02:09:05;98179.22;;;8.54;100.00
49843;BME280;55559;48.898;9.184;2023-03-22T02:11:36;98185.06;;;8.48;100.00
49843;BME280;55559;48.898;9.184;2023-03-22T02:14:30;98181.34;;;8.39;100.00
49843;BME280;55559;48.898;9.184;2023-03-22T02:17:35;98178.97;;;8.36;100.00
49843;BME280;55559;48.898;9.184;2023-03-22T02:23:47;98175.66;;;8.23;100.00
49843;BME280;55559;48.898;9.184;2023-03-22T02:27:05;98167.97;;;8.20;100.00
49843;BME280;55559;48.898;9.184;2023-03-22T02:29:44;98163.19;;;8.14;100.00
49843;BME280;55559;48.898;9.184;2023-03-22T02:35:48;98161.94;;;7.97;100.00
49843;BME280;55559;48.898;9.184;2023-03-22T02:41:35;98155.28;;;7.81;100.00
49843;BME280;55559;48.898;9.184;2023-03-22T02:44:11;98159.63;;;7.82;100.00
49843;BME280;55559;48.898;9.184;2023-03-22T02:46:46;98160.56;;;7.81;100.00
49843;BME280;55559;48.898;9.184;2023-03-22T02:49:20;98158.63;;;7.83;100.00
49843;BME280;55559;48.898;9.184;2023-03-22T02:51:59;98164.13;;;7.92;100.00
49843;BME280;55559;48.898;9.184;2023-03-22T02:54:32;98161.44;;;8.03;100.00
49843;BME280;55559;48.898;9.184;2023-03-22T02:57:05;98160.47;;;8.04;100.00
49843;BME280;55559;48.898;9.184;2023-03-22T02:59:36;98153.81;;;8.10;100.00
49843;BME280;55559;48.898;9.184;2023-03-22T03:02:08;98151.75;;;8.13;100.00
49843;BME280;55559;48.898;9.184;2023-03-22T03:04:43;98146.84;;;8.09;100.00
49843;BME280;55559;48.898;9.184;2023-03-22T03:07:15;98148.06;;;8.05;100.00
49843;BME280;55559;48.898;9.184;2023-03-22T03:09:46;98153.50;;;8.03;100.00
49843;BME280;55559;48.898;9.184;2023-03-22T03:12:18;98155.28;;;8.02;100.00
49843;BME280;55559;48.898;9.184;2023-03-22T03:14:47;98153.50;;;8.03;100.00
49843;BME280;55559;48.898;9.184;2023-03-22T03:17:24;98152.31;;;7.96;100.00
49843;BME280;55559;48.898;9.184;2023-03-22T03:20:14;98156.78;;;7.95;100.00
49843;BME280;55559;48.898;9.184;2023-03-22T03:22:52;98162.84;;;8.07;100.00
49843;BME280;55559;48.898;9.184;2023-03-22T03:25:25;98163.38;;;8.01;100.00
49843;BME280;55559;48.898;9.184;2023-03-22T03:28:05;98170.59;;;7.99;100.00
49843;BME280;55559;48.898;9.184;2023-03-22T03:30:38;98161.50;;;7.92;100.00
49843;BME280;55559;48.898;9.184;2023-03-22T03:33:13;98155.28;;;7.81;100.00
49843;BME280;55559;48.898;9.184;2023-03-22T03:35:46;98166.34;;;7.75;100.00
49843;BME280;55559;48.898;9.184;2023-03-22T03:38:17;98168.78;;;7.67;100.00
49843;BME280;55559;48.898;9.184;2023-03-22T03:40:48;98167.38;;;7.63;100.00
49843;BME280;55559;48.898;9.184;2023-03-22T03:43:18;98166.09;;;7.57;100.00
49843;BME280;55559;48.898;9.184;2023-03-22T03:45:47;98160.44;;;7.51;100.00
49843;BME280;55559;48.898;9.184;2023-03-22T03:48:18;98174.41;;;7.41;100.00
49843;BME280;55559;48.898;9.184;2023-03-22T03:50:47;98173.09;;;7.36;100.00
49843;BME280;55559;48.898;9.184;2023-03-22T03:53:17;98173.00;;;7.26;100.00
49843;BME280;55559;48.898;9.184;2023-03-22T03:55:44;98172.41;;;7.22;100.00
49843;BME280;55559;48.898;9.184;2023-03-22T03:58:13;98172.28;;;7.24;100.00
49843;BME280;55559;48.898;9.184;2023-03-22T04:00:44;98174.22;;;7.22;100.00
49843;BME280;55559;48.898;9.184;2023-03-22T04:03:35;98179.50;;;7.22;100.00
49843;BME280;55559;48.898;9.184;2023-03-22T04:06:11;98181.78;;;7.15;100.00
49843;BME280;55559;48.898;9.184;2023-03-22T04:08:43;98181.06;;;7.13;100.00
49843;BME280;55559;48.898;9.184;2023-03-22T04:11:14;98180.22;;;7.01;100.00
49843;BME280;55559;48.898;9.184;2023-03-22T04:13:44;98175.66;;;6.92;100.00
49843;BME280;55559;48.898;9.184;2023-03-22T04:16:19;98175.53;;;6.82;100.00
49843;BME280;55559;48.898;9.184;2023-03-22T04:18:47;98174.69;;;6.70;100.00
49843;BME280;55559;48.898;9.184;2023-03-22T04:21:15;98176.63;;;6.57;100.00
49843;BME280;55559;48.898;9.184;2023-03-22T04:24:01;98173.00;;;6.47;100.00
49843;BME280;55559;48.898;9.184;2023-03-22T04:26:34;98170.00;;;6.40;100.00
49843;BME280;55559;48.898;9.184;2023-03-22T04:29:23;98161.91;;;6.30;100.00
49843;BME280;55559;48.898;9.184;2023-03-22T04:31:58;98172.75;;;6.27;100.00
49843;BME280;55559;48.898;9.184;2023-03-22T04:34:46;98161.91;;;6.19;100.00
49843;BME280;55559;48.898;9.184;2023-03-22T04:37:17;98163.34;;;6.23;100.00
49843;BME280;55559;48.898;9.184;2023-03-22T04:39:55;98155.09;;;6.28;100.00
49843;BME280;55559;48.898;9.184;2023-03-22T04:42:40;98148.41;;;6.46;100.00
49843;BME280;55559;48.898;9.184;2023-03-22T04:45:17;98149.81;;;6.50;100.00
49843;BME280;55559;48.898;9.184;2023-03-22T04:47:53;98139.16;;;6.63;100.00
49843;BME280;55559;48.898;9.184;2023-03-22T04:50:21;98141.91;;;6.84;100.00
49843;BME280;55559;48.898;9.184;2023-03-22T04:52:54;98138.66;;;7.03;100.00
49843;BME280;55559;48.898;9.184;2023-03-22T04:55:24;98136.97;;;7.14;100.00
49843;BME280;55559;48.898;9.184;2023-03-22T04:57:53;98129.44;;;7.30;100.00
49843;BME280;55559;48.898;9.184;2023-03-22T05:00:22;98124.16;;;7.30;100.00
49843;BME280;55559;48.898;9.184;2023-03-22T05:02:52;98122.50;;;7.29;100.00
49843;BME280;55559;48.898;9.184;2023-03-22T05:05:33;98126.44;;;7.35;100.00
49843;BME280;55559;48.898;9.184;2023-03-22T05:08:02;98121.78;;;7.27;100.00
49843;BME280;55559;48.898;9.184;2023-03-22T05:10:32;98119.16;;;7.27;100.00
49843;BME280;55559;48.898;9.184;2023-03-22T05:12:59;98121.78;;;7.27;100.00
49843;BME280;55559;48.898;9.184;2023-03-22T05:15:30;98112.38;;;7.34;100.00
49843;BME280;55559;48.898;9.184;2023-03-22T05:18:03;98116.31;;;7.40;100.00
49843;BME280;55559;48.898;9.184;2023-03-22T05:20:34;98111.13;;;7.50;100.00
49843;BME280;55559;48.898;9.184;2023-03-22T05:23:22;98119.06;;;7.50;100.00
49843;BME280;55559;48.898;9.184;2023-03-22T05:25:53;98115.84;;;7.46;100.00
49843;BME280;55559;48.898;9.184;2023-03-22T05:28:23;98114.72;;;7.49;100.00
49843;BME280;55559;48.898;9.184;2023-03-22T05:31:00;98121.97;;;7.47;100.00
49843;BME280;55559;48.898;9.184;2023-03-22T05:33:39;98119.44;;;7.45;100.00
49843;BME280;55559;48.898;9.184;2023-03-22T05:36:09;98113.91;;;7.48;100.00
49843;BME280;55559;48.898;9.184;2023-03-22T05:38:48;98117.84;;;7.54;100.00
49843;BME280;55559;48.898;9.184;2023-03-22T05:41:16;98107.47;;;7.62;100.00
49843;BME280;55559;48.898;9.184;2023-03-22T05:43:44;98111.88;;;7.73;100.00
49843;BME280;55559;48.898;9.184;2023-03-22T05:46:12;98125.25;;;7.71;100.00
49843;BME280;55559;48.898;9.184;2023-03-22T05:48:49;98120.06;;;7.70;100.00
49843;BME280;55559;48.898;9.184;2023-03-22T05:51:17;98125.03;;;7.63;100.00
49843;BME280;55559;48.898;9.184;2023-03-22T05:53:48;98126.56;;;7.66;100.00
49843;BME280;55559;48.898;9.184;2023-03-22T05:56:23;98124.53;;;7.69;100.00
49843;BME280;55559;48.898;9.184;2023-03-22T05:58:59;98121.03;;;7.69;100.00
49843;BME280;55559;48.898;9.184;2023-03-22T06:01:27;98123.31;;;7.73;100.00
49843;BME280;55559;48.898;9.184;2023-03-22T06:04:25;98124.00;;;7.75;100.00
49843;BME280;55559;48.898;9.184;2023-03-22T06:06:56;98123.88;;;7.77;100.00
49843;BME280;55559;48.898;9.184;2023-03-22T06:09:44;98132.28;;;7.82;100.00
49843;BME280;55559;48.898;9.184;2023-03-22T06:12:19;98133.59;;;7.88;100.00
49843;BME280;55559;48.898;9.184;2023-03-22T06:14:57;98132.94;;;7.95;100.00
49843;BME280;55559;48.898;9.184;2023-03-22T06:17:34;98133.28;;;8.02;100.00
49843;BME280;55559;48.898;9.184;2023-03-22T06:20:07;98139.03;;;8.07;100.00
49843;BME280;55559;48.898;9.184;2023-03-22T06:22:37;98129.59;;;8.14;100.00
49843;BME280;55559;48.898;9.184;2023-03-22T06:25:07;98140.38;;;8.23;100.00
49843;BME280;55559;48.898;9.184;2023-03-22T06:27:39;98146.97;;;8.28;100.00
49843;BME280;55559;48.898;9.184;2023-03-22T06:30:08;98142.31;;;8.42;100.00
49843;BME280;55559;48.898;9.184;2023-03-22T06:32:51;98145.31;;;8.48;100.00
49843;BME280;55559;48.898;9.184;2023-03-22T06:35:21;98145.03;;;8.51;100.00
49843;BME280;55559;48.898;9.184;2023-03-22T06:37:49;98148.84;;;8.59;100.00
49843;BME280;55559;48.898;9.184;2023-03-22T06:40:17;98152.25;;;8.70;100.00
49843;BME280;55559;48.898;9.184;2023-03-22T06:42:48;98148.09;;;8.78;100.00
49843;BME280;55559;48.898;9.184;2023-03-22T06:45:17;98155.09;;;8.88;100.00
49843;BME280;55559;48.898;9.184;2023-03-22T06:47:45;98158.38;;;9.02;100.00
49843;BME280;55559;48.898;9.184;2023-03-22T06:50:34;98159.09;;;9.13;100.00
49843;BME280;55559;48.898;9.184;2023-03-22T06:53:30;98154.66;;;9.24;100.00
49843;BME280;55559;48.898;9.184;2023-03-22T06:55:57;98151.78;;;9.37;100.00
49843;BME280;55559;48.898;9.184;2023-03-22T06:58:25;98153.75;;;9.44;100.00
49843;BME280;55559;48.898;9.184;2023-03-22T07:00:54;98147.63;;;9.54;100.00
49843;BME280;55559;48.898;9.184;2023-03-22T07:03:22;98153.38;;;9.68;100.00
49843;BME280;55559;48.898;9.184;2023-03-22T07:06:01;98158.97;;;9.75;100.00
49843;BME280;55559;48.898;9.184;2023-03-22T07:08:31;98144.28;;;9.81;100.00
49843;BME280;55559;48.898;9.184;2023-03-22T07:10:59;98149.72;;;9.89;100.00
49843;BME280;55559;48.898;9.184;2023-03-22T07:13:27;98152.38;;;9.99;100.00
49843;BME280;55559;48.898;9.184;2023-03-22T07:16:01;98145.94;;;10.01;100.00
49843;BME280;55559;48.898;9.184;2023-03-22T07:18:34;98148.03;;;10.08;100.00
49843;BME280;55559;48.898;9.184;2023-03-22T07:21:05;98147.91;;;10.19;100.00
49843;BME280;55559;48.898;9.184;2023-03-22T07:23:34;98140.50;;;10.32;100.00
49843;BME280;55559;48.898;9.184;2023-03-22T07:26:08;98143.56;;;10.37;100.00
49843;BME280;55559;48.898;9.184;2023-03-22T07:28:38;98137.09;;;10.50;100.00
49843;BME280;55559;48.898;9.184;2023-03-22T07:31:12;98133.81;;;10.66;100.00
49843;BME280;55559;48.898;9.184;2023-03-22T07:33:52;98137.44;;;10.74;100.00
49843;BME280;55559;48.898;9.184;2023-03-22T07:36:23;98143.16;;;10.79;100.00
49843;BME280;55559;48.898;9.184;2023-03-22T07:38:52;98133.72;;;10.95;100.00
49843;BME280;55559;48.898;9.184;2023-03-22T07:41:33;98131.56;;;11.08;100.00
49843;BME280;55559;48.898;9.184;2023-03-22T07:44:29;98130.59;;;11.27;100.00
49843;BME280;55559;48.898;9.184;2023-03-22T07:47:20;98138.38;;;11.39;100.00
49843;BME280;55559;48.898;9.184;2023-03-22T07:50:07;98139.53;;;11.54;100.00
49843;BME280;55559;48.898;9.184;2023-03-22T07:52:38;98141.44;;;11.62;100.00
49843;BME280;55559;48.898;9.184;2023-03-22T07:55:08;98136.72;;;11.73;100.00
49843;BME280;55559;48.898;9.184;2023-03-22T07:57:36;98131.97;;;11.77;100.00
49843;BME280;55559;48.898;9.184;2023-03-22T08:00:07;98145.50;;;12.02;100.00
49843;BME280;55559;48.898;9.184;2023-03-22T08:02:41;98145.28;;;12.13;100.00
49843;BME280;55559;48.898;9.184;2023-03-22T08:05:16;98140.16;;;12.20;100.00
49843;BME280;55559;48.898;9.184;2023-03-22T08:07:51;98150.38;;;12.24;99.75
49843;BME280;55559;48.898;9.184;2023-03-22T08:10:19;98144.03;;;12.25;98.90
49843;BME280;55559;48.898;9.184;2023-03-22T08:12:47;98141.44;;;12.34;98.00
49843;BME280;55559;48.898;9.184;2023-03-22T08:15:22;98140.66;;;12.41;98.58
49843;BME280;55559;48.898;9.184;2023-03-22T08:17:51;98142.69;;;12.47;97.56
49843;BME280;55559;48.898;9.184;2023-03-22T08:20:42;98140.50;;;12.69;97.37
49843;BME280;55559;48.898;9.184;2023-03-22T08:23:17;98143.59;;;12.91;94.35
49843;BME280;55559;48.898;9.184;2023-03-22T08:25:45;98143.41;;;12.84;94.54
49843;BME280;55559;48.898;9.184;2023-03-22T08:28:12;98141.09;;;12.89;94.62
49843;BME280;55559;48.898;9.184;2023-03-22T08:30:42;98154.81;;;12.94;94.79
49843;BME280;55559;48.898;9.184;2023-03-22T08:33:10;98141.34;;;13.04;94.33
49843;BME280;55559;48.898;9.184;2023-03-22T08:35:38;98124.22;;;13.23;93.27
49843;BME280;55559;48.898;9.184;2023-03-22T08:38:05;98132.41;;;13.30;92.33
49843;BME280;55559;48.898;9.184;2023-03-22T08:40:45;98124.16;;;13.41;91.16
49843;BME280;55559;48.898;9.184;2023-03-22T08:43:13;98127.97;;;13.38;90.40
49843;BME280;55559;48.898;9.184;2023-03-22T08:45:40;98133.84;;;13.50;86.49
49843;BME280;55559;48.898;9.184;2023-03-22T08:48:13;98136.56;;;13.67;84.58
49843;BME280;55559;48.898;9.184;2023-03-22T08:51:05;98133.06;;;13.74;83.84
49843;BME280;55559;48.898;9.184;2023-03-22T08:53:49;98131.06;;;13.76;82.62
49843;BME280;55559;48.898;9.184;2023-03-22T08:56:42;98132.22;;;13.82;82.33
49843;BME280;55559;48.898;9.184;2023-03-22T08:59:38;98132.06;;;13.92;80.96
49843;BME280;55559;48.898;9.184;2023-03-22T09:02:44;98122.53;;;14.06;80.78
49843;BME280;55559;48.898;9.184;2023-03-22T09:05:13;98117.34;;;13.88;79.53
49843;BME280;55559;48.898;9.184;2023-03-22T09:07:42;98111.69;;;13.99;79.15
49843;BME280;55559;48.898;9.184;2023-03-22T09:10:23;98115.69;;;14.20;78.34
49843;BME280;55559;48.898;9.184;2023-03-22T09:12:52;98110.81;;;14.31;78.74
49843;BME280;55559;48.898;9.184;2023-03-22T09:15:20;98109.50;;;14.27;77.42
49843;BME280;55559;48.898;9.184;2023-03-22T09:18:02;98107.81;;;14.51;77.62
49843;BME280;55559;48.898;9.184;2023-03-22T09:20:29;98121.19;;;14.59;76.26
49843;BME280;55559;48.898;9.184;2023-03-22T09:22:57;98108.28;;;14.71;76.12
49843;BME280;55559;48.898;9.184;2023-03-22T09:25:25;98115.16;;;14.57;75.49
49843;BME280;55559;48.898;9.184;2023-03-22T09:27:54;98108.47;;;14.69;74.89
49843;BME280;55559;48.898;9.184;2023-03-22T09:30:21;98104.06;;;14.77;73.38
49843;BME280;55559;48.898;9.184;2023-03-22T09:32:49;98101.88;;;14.88;73.09
49843;BME280;55559;48.898;9.184;2023-03-22T09:35:16;98103.84;;;14.95;73.44
49843;BME280;55559;48.898;9.184;2023-03-22T09:37:55;98096.38;;;15.21;71.78
49843;BME280;55559;48.898;9.184;2023-03-22T09:40:25;98099.97;;;14.97;73.23
49843;BME280;55559;48.898;9.184;2023-03-22T09:42:58;98098.13;;;15.06;73.20
49843;BME280;55559;48.898;9.184;2023-03-22T09:45:32;98089.47;;;15.58;71.80
49843;BME280;55559;48.898;9.184;2023-03-22T09:48:05;98090.28;;;15.90;68.67
49843;BME280;55559;48.898;9.184;2023-03-22T09:50:43;98084.56;;;16.46;78.86
49843;BME280;55559;48.898;9.184;2023-03-22T09:53:13;98082.94;;;16.22;70.45
49843;BME280;55559;48.898;9.184;2023-03-22T09:55:45;98082.00;;;16.15;69.63
49843;BME280;55559;48.898;9.184;2023-03-22T09:58:23;98076.63;;;16.53;71.86
49843;BME280;55559;48.898;9.184;2023-03-22T10:00:55;98064.53;;;16.34;64.88
49843;BME280;55559;48.898;9.184;2023-03-22T10:03:38;98057.47;;;16.56;64.02
49843;BME280;55559;48.898;9.184;2023-03-22T10:06:14;98060.56;;;16.74;64.00
49843;BME280;55559;48.898;9.184;2023-03-22T10:08:52;98061.31;;;16.98;64.37
49843;BME280;55559;48.898;9.184;2023-03-22T10:11:33;98063.38;;;16.51;64.12
49843;BME280;55559;48.898;9.184;2023-03-22T10:14:15;98064.00;;;15.86;65.27
49843;BME280;55559;48.898;9.184;2023-03-22T10:16:49;98059.56;;;15.70;67.71
49843;BME280;55559;48.898;9.184;2023-03-22T10:19:22;98053.31;;;16.01;66.05
49843;BME280;55559;48.898;9.184;2023-03-22T10:21:52;98051.31;;;16.32;65.98
49843;BME280;55559;48.898;9.184;2023-03-22T10:24:24;98057.78;;;16.23;63.28
49843;BME280;55559;48.898;9.184;2023-03-22T10:26:54;98056.31;;;16.35;61.82
49843;BME280;55559;48.898;9.184;2023-03-22T10:29:28;98051.50;;;17.20;59.33
49843;BME280;55559;48.898;9.184;2023-03-22T10:32:09;98051.97;;;17.45;58.11
49843;BME280;55559;48.898;9.184;2023-03-22T10:34:39;98047.63;;;17.66;56.69
49843;BME280;55559;48.898;9.184;2023-03-22T10:37:12;98048.06;;;17.11;57.55
49843;BME280;55559;48.898;9.184;2023-03-22T10:39:43;98038.31;;;17.47;56.94
49843;BME280;55559;48.898;9.184;2023-03-22T10:42:14;98039.41;;;16.80;58.21
49843;BME280;55559;48.898;9.184;2023-03-22T10:44:47;98022.72;;;16.99;57.92
49843;BME280;55559;48.898;9.184;2023-03-22T10:47:17;98030.97;;;17.56;56.21
49843;BME280;55559;48.898;9.184;2023-03-22T10:49:48;98029.66;;;18.16;54.12
49843;BME280;55559;48.898;9.184;2023-03-22T10:52:29;98022.34;;;18.80;51.48
49843;BME280;55559;48.898;9.184;2023-03-22T10:54:59;98018.78;;;19.08;51.45
49843;BME280;55559;48.898;9.184;2023-03-22T10:57:27;98016.66;;;19.72;50.74
49843;BME280;55559;48.898;9.184;2023-03-22T10:59:56;98017.09;;;19.75;48.95
49843;BME280;55559;48.898;9.184;2023-03-22T11:02:29;98010.34;;;19.24;50.42
49843;BME280;55559;48.898;9.184;2023-03-22T11:04:58;98018.56;;;19.03;51.08
49843;BME280;55559;48.898;9.184;2023-03-22T11:07:30;98026.00;;;17.53;57.01
49843;BME280;55559;48.898;9.184;2023-03-22T11:13:12;98016.72;;;18.68;52.89
49843;BME280;55559;48.898;9.184;2023-03-22T11:15:51;98012.41;;;18.74;52.39
49843;BME280;55559;48.898;9.184;2023-03-22T11:18:20;98010.34;;;18.76;52.41
49843;BME280;55559;48.898;9.184;2023-03-22T11:20:56;98008.81;;;18.67;52.60
49843;BME280;55559;48.898;9.184;2023-03-22T11:23:25;98012.72;;;18.22;54.97
49843;BME280;55559;48.898;9.184;2023-03-22T11:25:55;98003.25;;;17.98;53.57
49843;BME280;55559;48.898;9.184;2023-03-22T11:28:27;98005.78;;;18.07;54.32
49843;BME280;55559;48.898;9.184;2023-03-22T11:31:06;98015.22;;;18.24;54.13
49843;BME280;55559;48.898;9.184;2023-03-22T11:33:35;97999.25;;;18.22;53.70
49843;BME280;55559;48.898;9.184;2023-03-22T11:36:04;97999.47;;;18.56;52.26
49843;BME280;55559;48.898;9.184;2023-03-22T11:38:42;97991.22;;;19.06;50.71
49843;BME280;55559;48.898;9.184;2023-03-22T11:41:13;97990.53;;;19.79;48.87
49843;BME280;55559;48.898;9.184;2023-03-22T11:43:46;97995.25;;;18.40;51.80
49843;BME280;55559;48.898;9.184;2023-03-22T11:46:17;97989.31;;;18.93;52.13
49843;BME280;55559;48.898;9.184;2023-03-22T11:48:46;97988.31;;;19.01;50.88
49843;BME280;55559;48.898;9.184;2023-03-22T11:51:16;97986.09;;;18.34;52.70
49843;BME280;55559;48.898;9.184;2023-03-22T11:53:46;97991.03;;;18.31;52.76
49843;BME280;55559;48.898;9.184;2023-03-22T11:56:16;97982.97;;;18.72;51.44
49843;BME280;55559;48.898;9.184;2023-03-22T11:58:55;97977.97;;;19.18;50.89
49843;BME280;55559;48.898;9.184;2023-03-22T12:01:32;97973.22;;;19.20;50.08
49843;BME280;55559;48.898;9.184;2023-03-22T12:04:06;97969.94;;;19.51;49.41
49843;BME280;55559;48.898;9.184;2023-03-22T12:06:37;97968.22;;;19.17;50.42
49843;BME280;55559;48.898;9.184;2023-03-22T12:09:11;97967.44;;;19.63;49.07
49843;BME280;55559;48.898;9.184;2023-03-22T12:11:45;97958.34;;;19.77;49.03
49843;BME280;55559;48.898;9.184;2023-03-22T12:14:18;97958.50;;;20.29;47.74
49843;BME280;55559;48.898;9.184;2023-03-22T12:16:51;97969.34;;;19.89;48.36
49843;BME280;55559;48.898;9.184;2023-03-22T12:19:37;97952.09;;;19.57;47.79
49843;BME280;55559;48.898;9.184;2023-03-22T12:22:10;97951.69;;;19.40;48.69
49843;BME280;55559;48.898;9.184;2023-03-22T12:24:39;97945.78;;;18.89;50.24
49843;BME280;55559;48.898;9.184;2023-03-22T12:27:12;97947.38;;;18.77;50.83
49843;BME280;55559;48.898;9.184;2023-03-22T12:29:44;97945.28;;;18.72;50.54
49843;BME280;55559;48.898;9.184;2023-03-22T12:32:19;97939.97;;;18.92;49.41
49843;BME280;55559;48.898;9.184;2023-03-22T12:34:50;97941.31;;;19.50;48.68
49843;BME280;55559;48.898;9.184;2023-03-22T12:37:23;97930.69;;;19.15;48.23
49843;BME280;55559;48.898;9.184;2023-03-22T12:39:55;97934.59;;;18.92;47.53
49843;BME280;55559;48.898;9.184;2023-03-22T12:42:29;97936.97;;;18.67;48.11
49843;BME280;55559;48.898;9.184;2023-03-22T12:45:01;97935.00;;;18.96;46.87
49843;BME280;55559;48.898;9.184;2023-03-22T12:47:35;97934.66;;;18.64;48.21
49843;BME280;55559;48.898;9.184;2023-03-22T12:50:11;97925.28;;;19.02;46.33
49843;BME280;55559;48.898;9.184;2023-03-22T12:52:43;97927.97;;;19.02;45.38
49843;BME280;55559;48.898;9.184;2023-03-22T12:55:19;97920.56;;;19.44;44.49
49843;BME280;55559;48.898;9.184;2023-03-22T12:57:48;97916.88;;;19.78;44.72
49843;BME280;55559;48.898;9.184;2023-03-22T13:00:21;97912.47;;;19.70;44.18
49843;BME280;55559;48.898;9.184;2023-03-22T13:02:57;97911.44;;;19.72;43.99
49843;BME280;55559;48.898;9.184;2023-03-22T13:05:27;97916.00;;;19.18;44.93
49843;BME280;55559;48.898;9.184;2023-03-22T13:07:56;97903.31;;;19.11;45.71
49843;BME280;55559;48.898;9.184;2023-03-22T13:10:59;97901.25;;;19.13;44.08
49843;BME280;55559;48.898;9.184;2023-03-22T13:13:45;97904.41;;;19.84;43.27
49843;BME280;55559;48.898;9.184;2023-03-22T13:16:15;97906.38;;;20.22;39.89
49843;BME280;55559;48.898;9.184;2023-03-22T13:19:02;97897.09;;;20.04;38.51
49843;BME280;55559;48.898;9.184;2023-03-22T13:21:43;97904.38;;;19.97;38.09
49843;BME280;55559;48.898;9.184;2023-03-22T13:24:21;97896.69;;;19.41;39.00
49843;BME280;55559;48.898;9.184;2023-03-22T13:26:51;97887.16;;;19.11;39.19
49843;BME280;55559;48.898;9.184;2023-03-22T13:29:21;97893.19;;;19.60;38.98
49843;BME280;55559;48.898;9.184;2023-03-22T13:31:54;97891.94;;;19.49;39.05
49843;BME280;55559;48.898;9.184;2023-03-22T13:34:35;97886.09;;;19.99;38.04
49843;BME280;55559;48.898;9.184;2023-03-22T13:37:08;97879.09;;;19.51;38.24
49843;BME280;55559;48.898;9.184;2023-03-22T13:39:36;97871.63;;;19.27;39.00
49843;BME280;55559;48.898;9.184;2023-03-22T13:42:16;97870.16;;;19.38;39.02
49843;BME280;55559;48.898;9.184;2023-03-22T13:44:52;97863.31;;;19.55;38.87
49843;BME280;55559;48.898;9.184;2023-03-22T13:47:32;97872.84;;;19.58;38.72